Time;durP1;ratioP1;P1;durP2;ratioP2;P2;SDS_P1;SDS_P2;PMS_P1;PMS_P2;Temp;Humidity;BMP_temperature;BMP_pressure;BME280_temperature;BME280_humidity;BME280_pressure;Samples;Min_cycle;Max_cycle;Signal;HPM_P1;HPM_P2
2023/10/21 00:02:13;;;;;;;4.33;1.70;;;;;;;4.39;100.00;98894.72;7369387;19;20575;-43
2023/10/21 00:04:43;;;;;;;3.93;2.00;;;;;;;4.36;100.00;98892.91;7398700;19;20407;-43
2023/10/21 00:07:15;;;;;;;4.03;2.00;;;;;;;4.35;100.00;98906.50;7373686;19;20443;-42
2023/10/21 00:09:44;;;;;;;3.17;1.90;;;;;;;4.40;100.00;98910.09;7394620;19;21253;-42
2023/10/21 00:12:14;;;;;;;4.07;2.20;;;;;;;4.36;100.00;98915.91;7370927;19;20465;-43
2023/10/21 00:14:44;;;;;;;5.10;2.63;;;;;;;4.35;100.00;98916.72;7395370;19;20383;-41
2023/10/21 00:17:13;;;;;;;6.80;3.20;;;;;;;4.38;100.00;98909.19;7373760;19;20439;-41
2023/10/21 00:19:43;;;;;;;8.70;2.80;;;;;;;4.40;100.00;98911.78;7398444;19;20431;-41
2023/10/21 00:22:15;;;;;;;4.43;2.23;;;;;;;4.44;100.00;98904.31;7369432;19;20451;-42
2023/10/21 00:24:45;;;;;;;4.40;2.30;;;;;;;4.44;100.00;98904.31;7397434;19;21005;-42
2023/10/21 00:27:14;;;;;;;5.20;2.70;;;;;;;4.38;100.00;98906.63;7373511;19;20430;-41
2023/10/21 00:29:44;;;;;;;6.50;2.90;;;;;;;4.42;100.00;98922.94;7394464;19;20399;-41
2023/10/21 00:32:14;;;;;;;6.97;2.87;;;;;;;4.42;100.00;98911.03;7370449;19;20467;-41
2023/10/21 00:34:43;;;;;;;7.80;3.20;;;;;;;4.38;100.00;98916.84;7393548;19;20403;-42
2023/10/21 00:37:15;;;;;;;6.40;3.33;;;;;;;4.44;100.00;98922.19;7372931;19;20423;-42
2023/10/21 00:39:46;;;;;;;6.23;3.00;;;;;;;4.50;100.00;98925.78;7394772;19;20904;-43
2023/10/21 00:42:15;;;;;;;8.50;3.80;;;;;;;4.47;100.00;98918.88;7369050;19;20463;-41
2023/10/21 00:44:45;;;;;;;8.57;3.50;;;;;;;4.45;100.00;98915.38;7394253;19;20408;-41
2023/10/21 00:47:14;;;;;;;6.37;3.40;;;;;;;4.44;100.00;98914.53;7372575;19;20423;-41
2023/10/21 00:49:44;;;;;;;8.33;3.10;;;;;;;4.46;100.00;98920.56;7394430;19;20405;-42
2023/10/21 00:52:17;;;;;;;7.27;3.23;;;;;;;4.49;100.00;98924.03;7370292;19;20474;-45
2023/10/21 00:54:46;;;;;;;7.23;3.83;;;;;;;4.43;100.00;98925.56;7394044;19;20960;-41
2023/10/21 00:57:16;;;;;;;6.07;3.10;;;;;;;4.48;100.00;98924.84;7370966;19;20431;-40
2023/10/21 00:59:45;;;;;;;7.60;3.43;;;;;;;4.46;100.00;98930.78;7393379;19;20411;-42
2023/10/21 01:02:15;;;;;;;6.60;3.30;;;;;;;4.47;100.00;98931.66;7363805;19;20446;-41
2023/10/21 01:04:45;;;;;;;7.47;3.30;;;;;;;4.50;100.00;98930.91;7394032;19;20408;-42
2023/10/21 01:07:20;;;;;;;8.83;3.90;;;;;;;4.51;100.00;98927.53;7366733;19;20427;-42
2023/10/21 01:09:50;;;;;;;9.57;4.07;;;;;;;4.54;100.00;98935.28;7390731;19;20429;-39
2023/10/21 01:12:19;;;;;;;5.57;3.43;;;;;;;4.55;100.00;98934.47;7368742;19;20463;-40
2023/10/21 01:14:49;;;;;;;12.70;4.37;;;;;;;4.58;100.00;98944.81;7393397;19;20400;-41
2023/10/21 01:17:19;;;;;;;8.40;3.37;;;;;;;4.58;100.00;98937.16;7372850;19;20427;-41
2023/10/21 01:19:48;;;;;;;7.43;4.03;;;;;;;4.57;100.00;98941.38;7395180;19;20403;-43
2023/10/21 01:22:21;;;;;;;9.43;4.00;;;;;;;4.59;100.00;98947.44;7367407;19;20538;-41
2023/10/21 01:24:53;;;;;;;7.73;3.73;;;;;;;4.58;100.00;98949.91;7394989;19;20400;-44
2023/10/21 01:27:23;;;;;;;10.90;3.40;;;;;;;4.56;100.00;98956.66;7371293;19;20846;-41
2023/10/21 01:29:52;;;;;;;7.17;3.27;;;;;;;4.59;100.00;98938.88;7397357;19;20785;-43
2023/10/21 01:32:24;;;;;;;8.00;4.17;;;;;;;4.58;100.00;98944.81;7368393;19;20471;-42
2023/10/21 01:34:54;;;;;;;7.27;3.90;;;;;;;4.62;100.00;98946.69;7393422;19;20392;-41
2023/10/21 01:37:23;;;;;;;8.40;4.47;;;;;;;4.55;100.00;98944.69;7371157;19;20853;-42
2023/10/21 01:39:55;;;;;;;8.60;3.90;;;;;;;4.64;100.00;98934.81;7395174;19;20415;-43
2023/10/21 01:42:25;;;;;;;17.30;4.87;;;;;;;4.63;100.00;98938.19;7368260;19;20469;-41
2023/10/21 01:44:55;;;;;;;9.83;4.60;;;;;;;4.65;100.00;98944.22;7394352;19;20998;-41
2023/10/21 01:47:25;;;;;;;11.00;4.53;;;;;;;4.67;100.00;98937.47;7371174;19;20495;-43
2023/10/21 01:49:54;;;;;;;10.33;5.20;;;;;;;4.69;100.00;98938.41;7392061;19;20410;-42
2023/10/21 01:52:24;;;;;;;8.57;4.60;;;;;;;4.68;100.00;98928.97;7366841;19;20526;-43
2023/10/21 01:54:56;;;;;;;12.23;4.47;;;;;;;4.76;100.00;98931.81;7394847;19;20408;-43
2023/10/21 01:57:26;;;;;;;14.77;5.00;;;;;;;4.76;100.00;98925.88;7370778;19;20542;-42
2023/10/21 01:59:56;;;;;;;9.80;4.80;;;;;;;4.82;100.00;98934.59;7394655;19;20398;-42
2023/10/21 02:02:25;;;;;;;10.87;5.03;;;;;;;4.75;100.00;98929.22;7367751;19;20484;-44
2023/10/21 02:04:55;;;;;;;11.47;5.60;;;;;;;4.77;100.00;98938.66;7392067;19;20408;-41
2023/10/21 02:07:25;;;;;;;13.03;6.27;;;;;;;4.76;100.00;98943.75;7371368;19;20453;-43
2023/10/21 02:09:57;;;;;;;13.33;5.70;;;;;;;4.81;100.00;98952.44;7395905;19;20399;-43
2023/10/21 02:12:27;;;;;;;10.00;5.57;;;;;;;4.80;100.00;98950.69;7374259;19;20892;-41
2023/10/21 02:14:57;;;;;;;11.60;4.80;;;;;;;4.82;100.00;98956.75;7399389;19;20470;-42
2023/10/21 02:17:27;;;;;;;15.87;6.60;;;;;;;4.83;100.00;98967.00;7377672;19;20463;-40
2023/10/21 02:19:57;;;;;;;14.87;5.70;;;;;;;4.80;100.00;98963.47;7401142;19;20451;-43
2023/10/21 02:22:27;;;;;;;12.20;5.17;;;;;;;4.81;100.00;98966.09;7374682;19;20463;-41
2023/10/21 02:25:00;;;;;;;12.63;5.87;;;;;;;4.84;100.00;98973.00;7397863;19;20754;-42
2023/10/21 02:27:41;;;;;;;16.20;6.53;;;;;;;4.85;100.00;98977.28;7378864;19;20502;-41
2023/10/21 02:30:13;;;;;;;16.60;6.40;;;;;;;4.84;100.00;98979.00;7399328;19;20411;-42
2023/10/21 02:32:45;;;;;;;15.70;6.20;;;;;;;4.79;100.00;98983.06;7376907;19;21229;-43
2023/10/21 02:35:15;;;;;;;15.70;7.33;;;;;;;4.83;100.00;98991.69;7378742;19;20404;-41
2023/10/21 02:37:46;;;;;;;14.30;6.43;;;;;;;4.88;100.00;98994.41;7400598;19;21235;-41
2023/10/21 02:40:21;;;;;;;17.47;5.93;;;;;;;4.94;100.00;98989.53;7374349;19;20431;-41
2023/10/21 02:42:50;;;;;;;18.27;6.87;;;;;;;4.91;100.00;98997.97;7398053;19;20411;-41
2023/10/21 02:45:20;;;;;;;14.80;7.27;;;;;;;4.90;100.00;98995.34;7375839;19;20407;-42
2023/10/21 02:47:50;;;;;;;17.53;6.17;;;;;;;4.90;100.00;98991.09;7396148;19;20411;-40
2023/10/21 02:50:20;;;;;;;15.43;6.50;;;;;;;4.90;100.00;98993.66;7375305;19;20414;-43
2023/10/21 02:52:51;;;;;;;15.00;7.17;;;;;;;4.90;100.00;98998.78;7395390;19;20411;-41
2023/10/21 02:55:23;;;;;;;18.70;7.17;;;;;;;4.94;100.00;99000.63;7375523;19;20404;-43
2023/10/21 02:57:52;;;;;;;16.73;6.43;;;;;;;4.99;100.00;98996.53;7398994;19;20430;-43
2023/10/21 03:00:22;;;;;;;17.07;6.97;;;;;;;4.97;100.00;99002.44;7375236;19;20968;-42
2023/10/21 03:02:52;;;;;;;17.73;7.20;;;;;;;4.97;100.00;98994.78;7397680;19;20406;-42
2023/10/21 03:05:22;;;;;;;18.57;7.70;;;;;;;5.02;100.00;98997.47;7374933;19;20411;-42
2023/10/21 03:07:52;;;;;;;15.13;7.23;;;;;;;5.03;100.00;98996.66;7395599;19;21010;-42
2023/10/21 03:10:24;;;;;;;14.07;6.40;;;;;;;5.04;100.00;98996.72;7375013;19;21006;-41
2023/10/21 03:12:54;;;;;;;17.03;7.90;;;;;;;5.05;100.00;98992.47;7394233;19;20407;-44
2023/10/21 03:15:23;;;;;;;16.87;7.13;;;;;;;5.09;100.00;98990.06;7374892;19;20423;-43
2023/10/21 03:17:53;;;;;;;17.73;7.97;;;;;;;5.08;100.00;98987.47;7397097;19;20403;-41
2023/10/21 03:20:23;;;;;;;16.70;7.83;;;;;;;5.06;100.00;98989.09;7370094;19;20486;-41
2023/10/21 03:22:52;;;;;;;20.83;7.47;;;;;;;5.06;100.00;98989.09;7394381;19;20865;-42
2023/10/21 03:25:24;;;;;;;23.17;7.80;;;;;;;5.05;100.00;98983.13;7375021;19;20771;-43
2023/10/21 03:27:54;;;;;;;15.33;7.13;;;;;;;5.10;100.00;98985.84;7395421;19;20832;-40
2023/10/21 03:30:24;;;;;;;16.03;8.10;;;;;;;5.11;100.00;98974.78;7374065;19;20411;-43
2023/10/21 03:32:53;;;;;;;17.30;8.03;;;;;;;5.10;100.00;98976.50;7396809;19;20797;-43
2023/10/21 03:35:23;;;;;;;18.10;8.03;;;;;;;5.09;100.00;98974.72;7374612;19;20395;-42
2023/10/21 03:37:53;;;;;;;19.77;7.47;;;;;;;5.13;100.00;98979.13;7396840;19;20479;-41
2023/10/21 03:40:25;;;;;;;17.57;9.30;;;;;;;5.18;100.00;98975.88;7372959;19;20798;-44
2023/10/21 03:42:55;;;;;;;19.70;7.97;;;;;;;5.14;100.00;98977.47;7396558;19;20951;-42
2023/10/21 03:45:24;;;;;;;23.17;8.57;;;;;;;5.17;100.00;98967.34;7376053;19;20436;-41
2023/10/21 03:47:54;;;;;;;19.90;8.53;;;;;;;5.18;100.00;98958.00;7395528;19;21011;-41
2023/10/21 03:50:24;;;;;;;20.73;8.13;;;;;;;5.23;100.00;98959.88;7375535;19;20939;-41
2023/10/21 03:52:53;;;;;;;23.67;8.83;;;;;;;5.22;100.00;98957.25;7394951;19;20399;-43
2023/10/21 03:55:26;;;;;;;20.23;9.80;;;;;;;5.22;100.00;98959.81;7373334;19;20483;-40
2023/10/21 03:57:55;;;;;;;19.83;8.03;;;;;;;5.25;100.00;98963.38;7395075;19;20404;-44
2023/10/21 04:00:25;;;;;;;21.60;8.40;;;;;;;5.26;100.00;98967.66;7375388;19;20428;-45
2023/10/21 04:02:55;;;;;;;26.57;8.60;;;;;;;5.28;100.00;98960.03;7395507;19;20401;-44
2023/10/21 04:05:25;;;;;;;27.57;8.60;;;;;;;5.31;100.00;98979.72;7375499;19;20778;-44
2023/10/21 04:07:55;;;;;;;18.60;9.07;;;;;;;5.27;100.00;98979.63;7396337;19;20400;-42
2023/10/21 04:10:27;;;;;;;15.70;7.53;;;;;;;5.30;100.00;98988.22;7374067;19;20414;-44
2023/10/21 04:12:57;;;;;;;15.70;8.10;;;;;;;5.33;100.00;98978.09;7393875;19;20424;-47
2023/10/21 04:15:26;;;;;;;20.40;8.80;;;;;;;5.35;100.00;98979.91;7373267;19;20406;-42
2023/10/21 04:17:56;;;;;;;22.40;8.07;;;;;;;5.34;100.00;98990.06;7393792;19;20403;-44
2023/10/21 04:20:25;;;;;;;20.90;7.57;;;;;;;5.37;100.00;98996.16;7372880;19;20428;-41
2023/10/21 04:22:55;;;;;;;18.23;8.53;;;;;;;5.36;100.00;99001.22;7394520;19;21047;-42
2023/10/21 04:25:28;;;;;;;17.93;7.53;;;;;;;5.36;100.00;99008.88;7375355;19;20795;-42
2023/10/21 04:27:58;;;;;;;20.17;8.10;;;;;;;5.39;100.00;99009.88;7394018;19;20400;-42
2023/10/21 04:30:28;;;;;;;20.00;7.90;;;;;;;5.38;100.00;99008.13;7372579;19;20411;-47
2023/10/21 04:32:58;;;;;;;74.47;11.13;;;;;;;5.42;100.00;99005.69;7394409;19;20400;-44
2023/10/21 04:35:28;;;;;;;33.20;10.10;;;;;;;5.46;100.00;99004.97;7372600;19;20435;-46
2023/10/21 04:37:59;;;;;;;20.53;8.73;;;;;;;5.49;100.00;99007.63;7393377;19;20408;-41
2023/10/21 04:40:31;;;;;;;20.53;7.63;;;;;;;5.42;100.00;98996.31;7370768;19;20407;-42
2023/10/21 04:43:01;;;;;;;19.90;9.60;;;;;;;5.40;100.00;99003.06;7394899;19;20399;-43
2023/10/21 04:45:31;;;;;;;26.77;8.60;;;;;;;5.42;100.00;98998.88;7375016;19;20408;-41
2023/10/21 04:48:01;;;;;;;21.77;8.23;;;;;;;5.47;100.00;99006.69;7393776;19;20403;-43
2023/10/21 04:50:30;;;;;;;16.90;8.30;;;;;;;5.49;100.00;99003.38;7373640;19;20495;-42
2023/10/21 04:53:00;;;;;;;20.00;8.83;;;;;;;5.51;100.00;99006.88;7394227;19;20403;-45
2023/10/21 04:55:32;;;;;;;30.93;9.50;;;;;;;5.46;100.00;99010.97;7372643;19;20762;-44
2023/10/21 04:58:02;;;;;;;17.40;8.17;;;;;;;5.48;100.00;98991.41;7394647;19;20827;-47
2023/10/21 05:00:32;;;;;;;20.13;8.50;;;;;;;5.53;100.00;98991.56;7371301;19;20768;-42
2023/10/21 05:03:02;;;;;;;20.43;8.93;;;;;;;5.51;100.00;99001.75;7392557;19;20424;-42
2023/10/21 05:05:34;;;;;;;26.97;8.47;;;;;;;5.54;100.00;99003.56;7372413;19;20436;-44
2023/10/21 05:08:04;;;;;;;21.57;8.40;;;;;;;5.49;100.00;99015.31;7394744;19;20980;-42
2023/10/21 05:10:37;;;;;;;19.90;8.40;;;;;;;5.51;100.00;99024.78;7371995;19;20948;-41
2023/10/21 05:13:06;;;;;;;23.23;8.50;;;;;;;5.52;100.00;99030.75;7392736;19;20426;-42
2023/10/21 05:15:38;;;;;;;16.70;7.93;;;;;;;5.49;100.00;99036.63;7373027;19;20429;-41
2023/10/21 05:18:08;;;;;;;17.77;8.33;;;;;;;5.50;100.00;99035.81;7392640;19;20415;-41
2023/10/21 05:20:38;;;;;;;22.30;8.33;;;;;;;5.54;100.00;99042.78;7370562;19;20403;-43
2023/10/21 05:23:07;;;;;;;23.47;8.97;;;;;;;5.54;100.00;99044.50;7391344;19;20487;-41
2023/10/21 05:25:40;;;;;;;29.27;9.90;;;;;;;5.59;100.00;99058.28;7373635;19;20402;-46
2023/10/21 05:28:10;;;;;;;24.20;9.20;;;;;;;5.52;100.00;99057.22;7392645;19;20471;-44
2023/10/21 05:30:41;;;;;;;20.20;8.93;;;;;;;5.58;100.00;99060.81;7373623;19;20479;-43
2023/10/21 05:33:10;;;;;;;28.33;9.23;;;;;;;5.62;100.00;99062.66;7393950;19;20404;-42
2023/10/21 05:35:40;;;;;;;16.80;7.90;;;;;;;5.64;100.00;99056.75;7372430;19;20399;-43
2023/10/21 05:38:10;;;;;;;17.30;7.80;;;;;;;5.69;100.00;99051.78;7391991;19;20404;-44
2023/10/21 05:40:43;;;;;;;20.20;8.70;;;;;;;5.67;100.00;99046.66;7370911;19;21004;-42
2023/10/21 05:43:13;;;;;;;20.80;8.50;;;;;;;5.68;100.00;99065.41;7392607;19;20407;-47
2023/10/21 05:45:43;;;;;;;17.07;7.90;;;;;;;5.69;100.00;99069.72;7379978;19;20471;-43
2023/10/21 05:48:15;;;;;;;16.90;8.40;;;;;;;5.69;100.00;99072.25;7401997;19;20447;-43
2023/10/21 05:50:45;;;;;;;20.97;8.80;;;;;;;5.70;100.00;99081.72;7379498;19;20492;-41
2023/10/21 05:53:15;;;;;;;26.40;9.80;;;;;;;5.69;100.00;99082.50;7397852;19;20414;-42
2023/10/21 05:55:47;;;;;;;18.90;8.67;;;;;;;5.72;100.00;99080.06;7378082;19;20427;-42
2023/10/21 05:58:16;;;;;;;18.30;9.30;;;;;;;5.75;100.00;99087.84;7398648;19;20420;-42
2023/10/21 06:00:46;;;;;;;18.07;8.23;;;;;;;5.74;100.00;99088.66;7375932;19;20459;-42
2023/10/21 06:03:16;;;;;;;25.63;10.03;;;;;;;5.71;100.00;99103.91;7400412;19;20391;-43
2023/10/21 06:05:46;;;;;;;23.20;9.00;;;;;;;5.72;100.00;99105.66;7379524;19;20451;-45
2023/10/21 06:08:16;;;;;;;23.20;9.47;;;;;;;5.73;100.00;99097.16;7400945;19;20403;-42
2023/10/21 06:10:49;;;;;;;19.73;9.00;;;;;;;5.76;100.00;99099.84;7376889;19;20538;-45
2023/10/21 06:13:18;;;;;;;34.80;17.03;;;;;;;5.83;100.00;99092.38;7398204;19;20471;-43
2023/10/21 06:15:49;;;;;;;23.53;9.50;;;;;;;5.81;100.00;99094.88;7375858;19;20441;-42
2023/10/21 06:18:19;;;;;;;23.70;9.70;;;;;;;5.80;100.00;99099.09;7401140;19;20410;-42
2023/10/21 06:20:51;;;;;;;21.70;8.87;;;;;;;5.84;100.00;99104.34;7376396;19;20481;-42
2023/10/21 06:23:21;;;;;;;20.70;9.43;;;;;;;5.85;100.00;99100.97;7397478;19;20407;-41
2023/10/21 06:25:54;;;;;;;17.70;8.23;;;;;;;5.86;100.00;99103.59;7375840;19;20419;-41
2023/10/21 06:28:24;;;;;;;20.63;8.60;;;;;;;5.87;100.00;99101.88;7397684;19;20400;-42
2023/10/21 06:30:54;;;;;;;21.27;8.87;;;;;;;5.80;100.00;99114.47;7374729;19;20538;-42
2023/10/21 06:33:23;;;;;;;17.50;8.50;;;;;;;5.81;100.00;99117.91;7399989;19;20427;-49
2023/10/21 06:35:53;;;;;;;17.63;7.90;;;;;;;5.79;100.00;99127.19;7377019;19;20419;-43
2023/10/21 06:38:22;;;;;;;23.87;10.70;;;;;;;5.83;100.00;99139.31;7399743;19;20428;-43
2023/10/21 06:40:56;;;;;;;17.80;8.43;;;;;;;5.87;100.00;99135.16;7372669;19;20530;-43
2023/10/21 06:43:43;;;;;;;16.40;7.90;;;;;;;5.84;100.00;99135.06;7401063;19;20483;-41
2023/10/21 06:46:13;;;;;;;19.57;8.37;;;;;;;5.89;100.00;99142.06;7375793;19;20415;-45
2023/10/21 06:48:43;;;;;;;17.83;7.30;;;;;;;5.91;100.00;99147.25;7397720;19;20431;-41
2023/10/21 06:51:13;;;;;;;17.40;7.23;;;;;;;5.93;100.00;99143.06;7374980;19;21316;-45
2023/10/21 06:53:43;;;;;;;20.70;10.07;;;;;;;5.96;100.00;99148.28;7400510;19;21030;-43
2023/10/21 06:56:16;;;;;;;19.50;8.80;;;;;;;5.95;100.00;99151.66;7375417;19;20434;-41
2023/10/21 06:58:47;;;;;;;19.27;9.10;;;;;;;6.00;100.00;99157.78;7400825;19;20411;-41
2023/10/21 07:01:17;;;;;;;20.40;9.20;;;;;;;6.02;100.00;99165.53;7373251;19;20451;-42
2023/10/21 07:03:47;;;;;;;17.00;8.03;;;;;;;6.04;100.00;99169.94;7397680;19;20404;-45
2023/10/21 07:06:17;;;;;;;23.23;9.90;;;;;;;6.06;100.00;99173.41;7375386;19;20506;-43
2023/10/21 07:08:47;;;;;;;17.60;8.33;;;;;;;6.12;100.00;99177.88;7400889;19;20462;-44
2023/10/21 07:11:19;;;;;;;16.50;8.90;;;;;;;6.13;100.00;99181.31;7372950;19;20447;-43
2023/10/21 07:13:49;;;;;;;17.90;8.63;;;;;;;6.17;100.00;99190.84;7396178;19;20402;-42
2023/10/21 07:16:18;;;;;;;19.43;8.73;;;;;;;6.14;100.00;99185.59;7375099;19;20500;-42
2023/10/21 07:18:48;;;;;;;20.03;9.00;;;;;;;6.14;100.00;99186.47;7400107;19;20423;-42
2023/10/21 07:21:19;;;;;;;22.23;10.80;;;;;;;6.15;100.00;99197.63;7373478;19;20509;-42
2023/10/21 07:23:49;;;;;;;22.00;9.57;;;;;;;6.13;100.00;99205.22;7395748;19;20410;-43
2023/10/21 07:26:22;;;;;;;17.90;8.83;;;;;;;6.16;100.00;99218.13;7375568;19;20514;-42
2023/10/21 07:28:52;;;;;;;18.33;9.47;;;;;;;6.20;100.00;99208.84;7398012;19;20411;-42
2023/10/21 07:31:22;;;;;;;18.20;8.43;;;;;;;6.15;100.00;99212.97;7372345;19;20455;-49
2023/10/21 07:33:53;;;;;;;18.20;8.00;;;;;;;6.23;100.00;99224.34;7398053;19;20399;-43
2023/10/21 07:36:22;;;;;;;16.30;7.60;;;;;;;6.19;100.00;99218.25;7374893;19;20427;-44
2023/10/21 07:38:52;;;;;;;18.60;8.83;;;;;;;6.30;100.00;99228.88;7397842;19;20434;-42
2023/10/21 07:41:24;;;;;;;19.13;8.73;;;;;;;6.27;100.00;99228.78;7372582;19;20454;-41
2023/10/21 07:43:54;;;;;;;16.07;8.23;;;;;;;6.32;100.00;99239.16;7395445;19;20420;-42
2023/10/21 07:46:23;;;;;;;18.97;8.63;;;;;;;6.32;100.00;99240.03;7374758;19;20592;-44
2023/10/21 07:48:53;;;;;;;15.33;7.80;;;;;;;6.34;100.00;99246.09;7395376;19;20427;-41
2023/10/21 07:51:23;;;;;;;16.37;8.40;;;;;;;6.37;100.00;99244.44;7373054;19;20447;-41
2023/10/21 07:53:53;;;;;;;17.17;8.70;;;;;;;6.37;100.00;99254.69;7395384;19;20403;-42
2023/10/21 07:56:26;;;;;;;24.20;8.80;;;;;;;6.40;100.00;99257.38;7373001;19;20518;-45
2023/10/21 07:58:55;;;;;;;18.77;8.30;;;;;;;6.43;100.00;99262.59;7395783;19;20475;-42
2023/10/21 08:01:25;;;;;;;17.70;7.93;;;;;;;6.48;100.00;99273.88;7371641;19;20459;-42
2023/10/21 08:03:54;;;;;;;21.20;10.03;;;;;;;6.52;100.00;99275.75;7396881;19;20391;-44
2023/10/21 08:06:24;;;;;;;17.13;8.67;;;;;;;6.51;100.00;99289.34;7373450;19;20487;-46
2023/10/21 08:08:54;;;;;;;17.37;9.20;;;;;;;6.49;100.00;99285.88;7395671;19;20407;-44
2023/10/21 08:11:27;;;;;;;20.73;9.53;;;;;;;6.52;100.00;99285.09;7372758;19;20451;-41
2023/10/21 08:13:57;;;;;;;15.20;8.00;;;;;;;6.57;100.00;99291.25;7394850;19;20756;-44
2023/10/21 08:16:27;;;;;;;16.33;7.67;;;;;;;6.67;100.00;99289.88;7372277;19;20427;-46
2023/10/21 08:18:58;;;;;;;15.40;7.93;;;;;;;6.68;100.00;99296.75;7394037;19;21061;-47
2023/10/21 08:21:28;;;;;;;89.07;36.20;;;;;;;6.79;100.00;99303.13;7370464;19;20463;-46
2023/10/21 08:23:58;;;;;;;34.03;14.80;;;;;;;6.93;100.00;99303.59;7390761;19;20400;-45
2023/10/21 08:26:31;;;;;;;45.30;20.10;;;;;;;6.95;100.00;99296.81;7370497;19;20426;-48
2023/10/21 08:29:02;;;;;;;26.77;12.90;;;;;;;6.90;100.00;99298.34;7392317;19;20519;-44
2023/10/21 08:31:32;;;;;;;35.90;14.40;;;;;;;6.98;100.00;99307.16;7371164;19;20826;-48
2023/10/21 08:34:02;;;;;;;22.50;10.30;;;;;;;7.00;100.00;99307.22;7385902;19;20408;-43
2023/10/21 08:36:31;;;;;;;44.00;18.80;;;;;;;7.09;100.00;99310.09;7361891;19;20443;-44
2023/10/21 08:39:01;;;;;;;20.03;9.90;;;;;;;7.15;100.00;99322.25;7392913;19;20942;-45
2023/10/21 08:41:37;;;;;;;14.80;6.93;;;;;;;6.99;100.00;99328.56;7367209;19;20852;-44
2023/10/21 08:44:09;;;;;;;11.23;6.30;;;;;;;6.87;100.00;99334.16;7395846;19;20779;-43
2023/10/21 08:46:39;;;;;;;11.37;6.23;;;;;;;6.92;100.00;99344.56;7368119;19;20415;-44
2023/10/21 08:49:09;;;;;;;9.63;5.50;;;;;;;6.88;100.00;99352.13;7396243;19;20787;-43
2023/10/21 08:51:40;;;;;;;11.87;5.80;;;;;;;6.87;100.00;99360.66;7370467;19;21123;-42
2023/10/21 08:54:10;;;;;;;11.57;5.90;;;;;;;6.86;100.00;99374.28;7394124;19;20403;-42
2023/10/21 08:56:44;;;;;;;10.63;5.80;;;;;;;6.87;100.00;99376.03;7373000;19;20487;-41
2023/10/21 08:59:14;;;;;;;10.83;5.60;;;;;;;6.86;100.00;99381.09;7395702;19;20417;-42
2023/10/21 09:01:45;;;;;;;9.20;5.27;;;;;;;6.84;100.00;99391.31;7370474;19;20462;-42
2023/10/21 09:04:22;;;;;;;13.63;5.50;;;;;;;6.85;100.00;99385.38;7394086;19;20414;-41
2023/10/21 09:06:59;;;;;;;8.10;5.07;;;;;;;6.87;100.00;99393.13;7371433;19;20426;-41
2023/10/21 09:09:29;;;;;;;7.67;4.50;;;;;;;6.89;100.00;99383.78;7394885;19;20412;-42
2023/10/21 09:12:13;;;;;;;9.90;4.93;;;;;;;6.88;100.00;99385.47;7367070;19;20839;-42
2023/10/21 09:14:52;;;;;;;11.57;5.20;;;;;;;6.93;100.00;99382.19;7390496;19;20408;-43
2023/10/21 09:17:22;;;;;;;10.10;4.93;;;;;;;6.98;100.00;99388.38;7368915;19;20427;-43
2023/10/21 09:19:54;;;;;;;8.10;4.57;;;;;;;6.93;100.00;99384.75;7392413;19;20404;-42
2023/10/21 09:22:25;;;;;;;11.17;5.17;;;;;;;6.94;100.00;99391.63;7367877;19;20451;-44
2023/10/21 09:25:14;;;;;;;8.30;4.90;;;;;;;6.95;100.00;99396.81;7395281;19;20513;-43
2023/10/21 09:27:49;;;;;;;7.47;4.47;;;;;;;6.94;100.00;99396.75;7372352;19;20451;-42
2023/10/21 09:30:19;;;;;;;7.67;4.57;;;;;;;6.95;100.00;99398.50;7371405;19;20482;-41
2023/10/21 09:32:49;;;;;;;7.97;4.53;;;;;;;6.95;100.00;99404.50;7391762;19;20414;-41
2023/10/21 09:35:25;;;;;;;8.03;4.27;;;;;;;6.97;100.00;99397.75;7371158;19;20407;-41
2023/10/21 09:37:54;;;;;;;7.43;3.93;;;;;;;7.00;100.00;99397.84;7391176;19;20435;-41
2023/10/21 09:40:24;;;;;;;9.00;3.87;;;;;;;6.99;100.00;99390.97;7370071;19;20403;-43
2023/10/21 09:42:58;;;;;;;7.40;4.30;;;;;;;7.01;100.00;99388.44;7390612;19;20404;-43
2023/10/21 09:45:29;;;;;;;7.30;4.40;;;;;;;7.05;100.00;99389.44;7369833;19;21029;-44
2023/10/21 09:48:00;;;;;;;7.23;3.97;;;;;;;7.08;100.00;99380.16;7390702;19;20971;-45
2023/10/21 09:50:30;;;;;;;7.40;4.07;;;;;;;7.07;100.00;99391.22;7369277;19;20419;-41
2023/10/21 09:53:05;;;;;;;5.50;3.90;;;;;;;7.05;100.00;99395.44;7391909;19;20411;-41
2023/10/21 09:55:36;;;;;;;8.00;4.60;;;;;;;7.10;100.00;99399.03;7371631;19;20863;-40
2023/10/21 09:58:10;;;;;;;7.23;4.37;;;;;;;7.11;100.00;99400.78;7391170;19;20407;-42
2023/10/21 10:00:41;;;;;;;8.30;4.13;;;;;;;7.11;100.00;99405.91;7369527;19;20399;-40
2023/10/21 10:03:11;;;;;;;9.17;4.47;;;;;;;7.14;100.00;99403.44;7390733;19;20420;-41
2023/10/21 10:05:44;;;;;;;7.67;3.80;;;;;;;7.18;100.00;99408.69;7370436;19;20395;-42
2023/10/21 10:08:11;;;;;;;8.77;4.43;;;;;;;7.23;100.00;99412.28;7392629;19;20410;-45
2023/10/21 10:10:42;;;;;;;7.00;3.77;;;;;;;7.30;100.00;99409.09;7370315;19;20405;-41
2023/10/21 10:13:15;;;;;;;7.67;4.40;;;;;;;7.29;100.00;99408.22;7390770;19;20403;-42
2023/10/21 10:15:45;;;;;;;6.30;4.13;;;;;;;7.28;100.00;99406.47;7372256;19;20494;-43
2023/10/21 10:18:19;;;;;;;6.20;4.00;;;;;;;7.35;100.00;99416.94;7390251;19;20946;-40
2023/10/21 10:20:51;;;;;;;6.50;3.93;;;;;;;7.42;100.00;99422.34;7370812;19;20475;-41
2023/10/21 10:23:24;;;;;;;6.30;3.67;;;;;;;7.38;100.00;99422.19;7392631;19;20949;-40
2023/10/21 10:25:54;;;;;;;5.90;3.60;;;;;;;7.39;100.00;99426.50;7369921;19;20417;-41
2023/10/21 10:28:27;;;;;;;5.10;3.50;;;;;;;7.40;100.00;99428.25;7393498;19;20430;-43
2023/10/21 10:31:00;;;;;;;6.80;4.40;;;;;;;7.45;100.00;99425.81;7370782;19;20479;-40
2023/10/21 10:33:31;;;;;;;5.73;3.50;;;;;;;7.49;100.00;99432.81;7400799;19;20471;-40
2023/10/21 10:36:06;;;;;;;8.27;4.30;;;;;;;7.50;100.00;99440.56;7375742;19;20449;-40
2023/10/21 10:38:45;;;;;;;7.77;4.30;;;;;;;7.53;100.00;99432.94;7397175;19;20415;-41
2023/10/21 10:41:18;;;;;;;6.00;3.50;;;;;;;7.54;100.00;99432.13;7372743;19;21006;-43
2023/10/21 10:43:52;;;;;;;8.00;4.33;;;;;;;7.59;100.00;99439.97;7400785;19;20800;-41
2023/10/21 10:46:24;;;;;;;15.40;6.30;;;;;;;7.61;100.00;99440.03;7377070;19;20814;-43
2023/10/21 10:48:54;;;;;;;11.33;5.80;;;;;;;7.57;100.00;99446.75;7399734;19;20395;-44
2023/10/21 10:51:27;;;;;;;13.57;7.33;;;;;;;7.60;100.00;99451.13;7374201;19;20466;-41
2023/10/21 10:54:01;;;;;;;10.80;5.20;;;;;;;7.60;100.00;99466.53;7396542;19;21234;-42
2023/10/21 10:56:43;;;;;;;9.87;4.90;;;;;;;7.66;100.00;99467.63;7376960;19;20435;-43
2023/10/21 10:59:18;;;;;;;9.97;5.97;;;;;;;7.66;100.00;99482.13;7397074;19;20482;-48
2023/10/21 11:02:00;;;;;;;8.43;5.23;;;;;;;7.63;100.00;99485.47;7373093;19;21026;-43
2023/10/21 11:04:32;;;;;;;11.50;6.10;;;;;;;7.53;100.00;99485.97;7397396;19;20526;-43
2023/10/21 11:07:03;;;;;;;13.20;6.50;;;;;;;7.57;100.00;99486.16;7373242;19;20475;-42
2023/10/21 11:09:33;;;;;;;11.33;6.07;;;;;;;7.45;100.00;99492.53;7397309;19;20410;-47
2023/10/21 11:12:04;;;;;;;12.60;7.13;;;;;;;7.51;100.00;99500.44;7373230;19;20462;-44
2023/10/21 11:14:42;;;;;;;21.33;9.90;;;;;;;7.55;100.00;99500.59;7400759;19;20413;-42
2023/10/21 11:17:12;;;;;;;20.13;8.53;;;;;;;7.61;100.00;99505.09;7375685;19;20851;-41
2023/10/21 11:19:43;;;;;;;10.20;5.83;;;;;;;7.61;100.00;99504.19;7397989;19;21066;-41
2023/10/21 11:22:22;;;;;;;15.73;7.00;;;;;;;7.71;100.00;99506.28;7371827;19;20463;-41
2023/10/21 11:24:51;;;;;;;10.50;6.63;;;;;;;7.70;100.00;99520.78;7396944;19;20919;-40
2023/10/21 11:27:22;;;;;;;16.70;8.67;;;;;;;7.72;100.00;99512.25;7375375;19;20423;-41
2023/10/21 11:29:54;;;;;;;12.13;7.10;;;;;;;7.74;100.00;99510.63;7398984;19;20396;-43
2023/10/21 11:32:28;;;;;;;13.70;6.73;;;;;;;7.77;100.00;99521.88;7373810;19;20459;-41
2023/10/21 11:35:03;;;;;;;18.23;8.50;;;;;;;7.76;100.00;99514.13;7396460;19;20403;-42
2023/10/21 11:37:33;;;;;;;13.40;7.37;;;;;;;7.83;100.00;99523.75;7376155;19;20446;-46
2023/10/21 11:40:03;;;;;;;11.50;6.70;;;;;;;7.88;100.00;99519.66;7397603;19;20480;-41
2023/10/21 11:42:35;;;;;;;14.00;7.27;;;;;;;7.87;100.00;99517.91;7369806;19;20447;-49
2023/10/21 11:45:10;;;;;;;14.30;7.40;;;;;;;7.87;100.00;99517.91;7396604;19;20404;-45